createdAt,value
2022-11-16T00:02:19.691Z,100.00
2022-11-16T00:04:46.781Z,100.00
2022-11-16T00:07:16.262Z,100.00
2022-11-16T00:09:43.198Z,100.00
2022-11-16T00:12:12.119Z,100.00
2022-11-16T00:14:39.118Z,100.00
2022-11-16T00:17:06.153Z,100.00
2022-11-16T00:19:35.419Z,100.00
2022-11-16T00:22:02.386Z,100.00
2022-11-16T00:24:29.214Z,100.00
2022-11-16T00:26:58.609Z,100.00
2022-11-16T00:29:26.442Z,100.00
2022-11-16T00:31:54.993Z,100.00
2022-11-16T00:34:23.642Z,100.00
2022-11-16T00:36:50.756Z,100.00
2022-11-16T00:39:18.613Z,100.00
2022-11-16T00:41:47.706Z,100.00
2022-11-16T00:44:14.931Z,100.00
2022-11-16T00:46:42.619Z,100.00
2022-11-16T00:49:09.933Z,100.00
2022-11-16T00:51:37.705Z,100.00
2022-11-16T00:54:07.449Z,100.00
2022-11-16T00:56:45.006Z,100.00
2022-11-16T00:59:12.516Z,100.00
2022-11-16T01:01:41.783Z,100.00
2022-11-16T01:04:08.793Z,100.00
2022-11-16T01:06:36.248Z,100.00
2022-11-16T01:09:03.372Z,100.00
2022-11-16T01:11:48.989Z,100.00
2022-11-16T01:14:18.346Z,100.00
2022-11-16T01:16:49.019Z,100.00
2022-11-16T01:19:16.047Z,100.00
2022-11-16T01:21:42.993Z,100.00
2022-11-16T01:24:09.950Z,100.00
2022-11-16T01:26:39.458Z,100.00
2022-11-16T01:29:06.642Z,100.00
2022-11-16T01:31:38.313Z,100.00
2022-11-16T01:34:05.439Z,100.00
2022-11-16T01:36:32.746Z,100.00
2022-11-16T01:39:01.329Z,100.00
2022-11-16T01:41:33.520Z,100.00
2022-11-16T01:44:25.749Z,100.00
2022-11-16T01:47:08.439Z,100.00
2022-11-16T01:49:38.994Z,100.00
2022-11-16T01:52:10.899Z,100.00
2022-11-16T01:54:51.583Z,100.00
2022-11-16T01:57:23.167Z,100.00
2022-11-16T02:00:07.152Z,100.00
2022-11-16T02:02:54.321Z,100.00
2022-11-16T02:05:55.374Z,100.00
2022-11-16T02:08:59.694Z,100.00
2022-11-16T02:11:43.973Z,100.00
2022-11-16T02:14:51.402Z,100.00
2022-11-16T02:17:31.159Z,100.00
2022-11-16T02:20:22.005Z,100.00
2022-11-16T02:23:23.289Z,100.00
2022-11-16T02:26:22.621Z,100.00
2022-11-16T02:29:33.524Z,100.00
2022-11-16T02:32:27.584Z,100.00
2022-11-16T02:35:33.901Z,100.00
2022-11-16T02:38:09.350Z,100.00
2022-11-16T02:40:48.844Z,100.00
2022-11-16T02:43:25.999Z,100.00
2022-11-16T02:46:03.734Z,100.00
2022-11-16T02:48:43.228Z,100.00
2022-11-16T02:51:19.025Z,100.00
2022-11-16T02:54:08.104Z,100.00
2022-11-16T02:56:57.209Z,100.00
2022-11-16T02:59:30.720Z,100.00
2022-11-16T03:02:06.436Z,100.00
2022-11-16T03:04:46.878Z,100.00
2022-11-16T03:07:17.573Z,100.00
2022-11-16T03:09:48.474Z,100.00
2022-11-16T03:12:29.558Z,100.00
2022-11-16T03:15:00.956Z,100.00
2022-11-16T03:17:32.243Z,100.00
2022-11-16T03:20:33.103Z,100.00
2022-11-16T03:23:08.016Z,100.00
2022-11-16T03:25:47.812Z,100.00
2022-11-16T03:28:23.786Z,100.00
2022-11-16T03:31:13.273Z,100.00
2022-11-16T03:33:55.197Z,100.00
2022-11-16T03:36:43.233Z,100.00
2022-11-16T03:39:20.675Z,100.00
2022-11-16T03:41:49.497Z,100.00
2022-11-16T03:44:19.946Z,100.00
2022-11-16T03:46:47.983Z,100.00
2022-11-16T03:49:15.624Z,100.00
2022-11-16T03:51:42.877Z,100.00
2022-11-16T03:54:10.237Z,100.00
2022-11-16T03:56:38.767Z,100.00
2022-11-16T03:59:05.867Z,100.00
2022-11-16T04:01:33.020Z,100.00
2022-11-16T04:04:00.478Z,100.00
2022-11-16T04:06:47.625Z,100.00
2022-11-16T04:09:33.902Z,100.00
2022-11-16T04:12:26.479Z,100.00
2022-11-16T04:15:14.471Z,100.00
2022-11-16T04:18:03.745Z,100.00
2022-11-16T04:20:50.087Z,100.00
2022-11-16T04:23:39.366Z,100.00
2022-11-16T04:26:11.213Z,100.00
2022-11-16T04:28:39.907Z,100.00
2022-11-16T04:31:26.693Z,100.00
2022-11-16T04:34:19.747Z,100.00
2022-11-16T04:37:08.463Z,100.00
2022-11-16T04:39:35.744Z,100.00
2022-11-16T04:42:14.849Z,100.00
2022-11-16T04:45:12.617Z,100.00
2022-11-16T04:47:50.031Z,100.00
2022-11-16T04:50:18.802Z,100.00
2022-11-16T04:52:46.302Z,100.00
2022-11-16T04:55:13.658Z,100.00
2022-11-16T04:57:40.901Z,100.00
2022-11-16T05:00:11.870Z,100.00
2022-11-16T05:02:39.466Z,100.00
2022-11-16T05:05:07.138Z,100.00
2022-11-16T05:07:35.498Z,100.00
2022-11-16T05:10:14.337Z,100.00
2022-11-16T05:12:41.810Z,100.00
2022-11-16T05:15:09.512Z,100.00
2022-11-16T05:17:36.514Z,100.00
2022-11-16T05:20:25.067Z,100.00
2022-11-16T05:22:57.245Z,100.00
2022-11-16T05:25:35.392Z,100.00
2022-11-16T05:28:05.546Z,100.00
2022-11-16T05:30:34.385Z,100.00
2022-11-16T05:33:02.067Z,100.00
2022-11-16T05:35:30.766Z,100.00
2022-11-16T05:37:57.841Z,100.00
2022-11-16T05:40:25.416Z,100.00
2022-11-16T05:42:57.690Z,100.00
2022-11-16T05:45:36.192Z,100.00
2022-11-16T05:48:03.681Z,100.00
2022-11-16T05:50:31.396Z,100.00
2022-11-16T05:53:09.910Z,100.00
2022-11-16T05:55:37.978Z,100.00
2022-11-16T05:58:04.973Z,100.00
2022-11-16T06:00:32.764Z,100.00
2022-11-16T06:03:00.237Z,100.00
2022-11-16T06:05:29.911Z,100.00
2022-11-16T06:07:57.729Z,100.00
2022-11-16T06:10:25.327Z,100.00
2022-11-16T06:12:53.565Z,100.00
2022-11-16T06:15:20.720Z,100.00
2022-11-16T06:17:47.864Z,100.00
2022-11-16T06:20:15.522Z,100.00
2022-11-16T06:22:43.684Z,100.00
2022-11-16T06:25:11.399Z,100.00
2022-11-16T06:27:40.367Z,100.00
2022-11-16T06:30:08.036Z,100.00
2022-11-16T06:32:35.108Z,100.00
2022-11-16T06:35:02.929Z,100.00
2022-11-16T06:37:30.568Z,100.00
2022-11-16T06:39:57.799Z,100.00
2022-11-16T06:42:25.036Z,100.00
2022-11-16T06:44:52.693Z,100.00
2022-11-16T06:47:20.861Z,100.00
2022-11-16T06:49:47.755Z,100.00
2022-11-16T06:52:19.346Z,100.00
2022-11-16T06:54:46.348Z,100.00
2022-11-16T06:57:20.597Z,100.00
2022-11-16T06:59:51.925Z,100.00
2022-11-16T07:02:20.861Z,100.00
2022-11-16T07:04:48.353Z,100.00
2022-11-16T07:07:15.994Z,100.00
2022-11-16T07:09:44.597Z,100.00
2022-11-16T07:12:11.455Z,100.00
2022-11-16T07:14:39.515Z,100.00
2022-11-16T07:17:09.695Z,100.00
2022-11-16T07:19:37.027Z,100.00
2022-11-16T07:22:05.927Z,100.00
2022-11-16T07:24:33.038Z,100.00
2022-11-16T07:27:00.044Z,100.00
2022-11-16T07:29:28.177Z,100.00
2022-11-16T07:32:18.249Z,100.00
2022-11-16T07:34:59.680Z,100.00
2022-11-16T07:37:27.194Z,100.00
2022-11-16T07:39:54.060Z,100.00
2022-11-16T07:42:22.158Z,100.00
2022-11-16T07:45:15.491Z,100.00
2022-11-16T07:47:51.832Z,100.00
2022-11-16T07:50:23.219Z,100.00
2022-11-16T07:52:50.385Z,100.00
2022-11-16T07:55:24.518Z,100.00
2022-11-16T07:57:53.405Z,100.00
2022-11-16T08:00:20.995Z,100.00
2022-11-16T08:02:55.138Z,100.00
2022-11-16T08:05:22.034Z,100.00
2022-11-16T08:08:12.722Z,100.00
2022-11-16T08:10:40.181Z,100.00
2022-11-16T08:13:10.806Z,100.00
2022-11-16T08:15:37.764Z,100.00
2022-11-16T08:18:06.044Z,100.00
2022-11-16T08:20:36.041Z,100.00
2022-11-16T08:23:03.491Z,100.00
2022-11-16T08:25:35.909Z,100.00
2022-11-16T08:28:04.182Z,100.00
2022-11-16T08:30:33.632Z,100.00
2022-11-16T08:33:01.103Z,100.00
2022-11-16T08:35:34.290Z,100.00
2022-11-16T08:38:03.932Z,100.00
2022-11-16T08:40:36.739Z,100.00
2022-11-16T08:43:05.668Z,99.98
2022-11-16T08:45:33.536Z,100.00
2022-11-16T08:48:04.030Z,100.00
2022-11-16T08:50:44.213Z,100.00
2022-11-16T08:53:20.557Z,100.00
2022-11-16T08:55:48.246Z,100.00
2022-11-16T08:58:15.868Z,100.00
2022-11-16T09:00:45.218Z,100.00
2022-11-16T09:03:11.985Z,100.00
2022-11-16T09:05:38.975Z,100.00
2022-11-16T09:08:06.093Z,99.90
2022-11-16T09:10:32.812Z,99.68
2022-11-16T09:12:59.953Z,99.42
2022-11-16T09:15:27.586Z,98.92
2022-11-16T09:17:55.051Z,98.39
2022-11-16T09:20:21.834Z,98.08
2022-11-16T09:22:48.896Z,97.11
2022-11-16T09:25:15.915Z,95.91
2022-11-16T09:27:43.068Z,96.40
2022-11-16T09:30:11.236Z,96.79
2022-11-16T09:32:38.044Z,95.67
2022-11-16T09:35:05.450Z,95.34
2022-11-16T09:37:32.491Z,95.89
2022-11-16T09:39:59.486Z,96.28
2022-11-16T09:42:57.928Z,96.59
2022-11-16T09:45:37.606Z,96.82
2022-11-16T09:48:09.038Z,97.03
2022-11-16T09:50:46.741Z,96.53
2022-11-16T09:53:32.979Z,95.99
2022-11-16T09:56:06.507Z,95.40
2022-11-16T09:59:00.575Z,95.12
2022-11-16T10:01:40.952Z,94.82
2022-11-16T10:04:17.926Z,94.86
2022-11-16T10:07:05.830Z,94.74
2022-11-16T10:09:35.200Z,95.04
2022-11-16T10:12:10.490Z,95.13
2022-11-16T10:15:00.966Z,94.94
2022-11-16T10:17:45.032Z,94.31
2022-11-16T10:20:22.289Z,93.51
2022-11-16T10:23:04.752Z,93.52
2022-11-16T10:25:46.223Z,94.23
2022-11-16T10:28:34.205Z,94.27
2022-11-16T10:31:17.827Z,94.52
2022-11-16T10:33:51.621Z,94.73
2022-11-16T10:36:26.566Z,94.02
2022-11-16T10:38:59.949Z,93.17
2022-11-16T10:41:39.217Z,92.11
2022-11-16T10:44:17.315Z,92.39
2022-11-16T10:46:55.661Z,93.52
2022-11-16T10:49:36.469Z,94.20
2022-11-16T10:52:03.909Z,93.72
2022-11-16T10:54:31.117Z,93.57
2022-11-16T10:57:05.106Z,93.33
2022-11-16T10:59:42.763Z,92.97
2022-11-16T11:02:34.043Z,93.12
2022-11-16T11:05:02.540Z,93.96
2022-11-16T11:07:32.409Z,92.89
2022-11-16T11:09:59.512Z,92.86
2022-11-16T11:12:39.526Z,93.07
2022-11-16T11:15:12.837Z,93.18
2022-11-16T11:17:46.637Z,92.79
2022-11-16T11:20:16.622Z,92.95
2022-11-16T11:22:55.094Z,92.88
2022-11-16T11:25:33.081Z,92.75
2022-11-16T11:28:20.195Z,92.40
2022-11-16T11:31:00.297Z,92.17
2022-11-16T11:33:36.993Z,92.07
2022-11-16T11:36:18.201Z,92.07
2022-11-16T11:39:20.430Z,92.66
2022-11-16T11:42:19.361Z,93.11
2022-11-16T11:44:58.128Z,93.05
2022-11-16T11:47:57.979Z,93.23
2022-11-16T11:50:35.212Z,93.22
2022-11-16T11:53:17.326Z,93.42
2022-11-16T11:55:44.370Z,94.08
2022-11-16T11:58:17.252Z,94.16
2022-11-16T12:01:03.830Z,94.05
2022-11-16T12:04:14.878Z,94.27
2022-11-16T12:06:48.873Z,94.28
2022-11-16T12:09:33.205Z,94.16
2022-11-16T12:12:32.672Z,94.17
2022-11-16T12:15:18.136Z,94.43
2022-11-16T12:17:59.887Z,94.81
2022-11-16T12:20:44.644Z,95.13
2022-11-16T12:23:30.292Z,94.60
2022-11-16T12:26:27.682Z,94.47
2022-11-16T12:29:19.202Z,94.66
2022-11-16T12:32:05.994Z,94.72
2022-11-16T12:36:56.628Z,94.69
2022-11-16T12:39:35.526Z,94.79
2022-11-16T12:42:24.071Z,95.12
2022-11-16T12:45:27.578Z,94.46
2022-11-16T12:48:00.218Z,93.95
2022-11-16T12:51:03.250Z,94.07
2022-11-16T12:53:40.472Z,94.04
2022-11-16T12:56:33.774Z,93.98
2022-11-16T12:59:17.304Z,94.28
2022-11-16T13:02:17.844Z,93.98
2022-11-16T13:04:58.807Z,94.23
2022-11-16T13:07:35.046Z,94.55
2022-11-16T13:10:13.101Z,94.23
2022-11-16T13:12:44.926Z,93.83
2022-11-16T13:15:20.591Z,94.06
2022-11-16T13:17:59.149Z,94.53
2022-11-16T13:21:01.823Z,94.57
2022-11-16T13:23:57.905Z,94.79
2022-11-16T13:26:35.231Z,94.93
2022-11-16T13:29:22.781Z,94.78
2022-11-16T13:32:14.353Z,94.74
2022-11-16T13:34:43.643Z,94.82
2022-11-16T13:37:36.695Z,94.82
2022-11-16T13:40:05.023Z,94.84
2022-11-16T13:43:11.412Z,95.03
2022-11-16T13:45:43.712Z,94.92
2022-11-16T13:48:28.492Z,94.88
2022-11-16T13:51:00.294Z,95.17
2022-11-16T13:56:50.405Z,95.24
2022-11-16T13:59:25.324Z,95.43
2022-11-16T14:02:04.242Z,95.49
2022-11-16T14:04:58.183Z,95.52
2022-11-16T14:07:32.735Z,95.58
2022-11-16T14:10:02.631Z,95.51
2022-11-16T14:12:55.065Z,95.57
2022-11-16T14:15:26.983Z,95.71
2022-11-16T14:18:23.059Z,95.70
2022-11-16T14:21:02.707Z,95.86
2022-11-16T14:23:55.769Z,95.94
2022-11-16T14:26:36.070Z,95.95
2022-11-16T14:29:47.139Z,96.23
2022-11-16T14:32:23.617Z,96.46
2022-11-16T14:34:54.837Z,96.62
2022-11-16T14:37:22.962Z,96.62
2022-11-16T14:39:58.084Z,96.75
2022-11-16T14:42:38.241Z,96.83
2022-11-16T14:45:24.829Z,96.96
2022-11-16T14:48:06.795Z,97.16
2022-11-16T14:50:40.860Z,97.25
2022-11-16T14:53:12.677Z,97.42
2022-11-16T14:55:42.921Z,97.43
2022-11-16T14:58:14.530Z,97.54
2022-11-16T15:00:53.198Z,97.60
2022-11-16T15:03:24.292Z,97.66
2022-11-16T15:05:52.932Z,97.74
2022-11-16T15:08:32.045Z,97.84
2022-11-16T15:11:04.459Z,98.06
2022-11-16T15:13:33.069Z,98.18
2022-11-16T15:16:09.657Z,98.43
2022-11-16T15:18:37.900Z,98.46
2022-11-16T15:21:06.770Z,98.46
2022-11-16T15:24:02.072Z,98.75
2022-11-16T15:26:38.819Z,98.93
2022-11-16T15:29:15.840Z,99.01
2022-11-16T15:31:45.302Z,98.99
2022-11-16T15:34:17.062Z,99.04
2022-11-16T15:36:45.969Z,99.10
2022-11-16T15:39:21.551Z,99.05
2022-11-16T15:41:51.802Z,99.18
2022-11-16T15:44:22.844Z,99.28
2022-11-16T15:46:55.251Z,99.36
2022-11-16T15:49:31.846Z,99.46
2022-11-16T15:52:00.881Z,99.50
2022-11-16T15:55:00.925Z,99.61
2022-11-16T15:57:29.450Z,99.68
2022-11-16T15:59:58.185Z,99.65
2022-11-16T16:02:29.016Z,99.68
2022-11-16T16:04:57.315Z,99.66
2022-11-16T16:07:41.147Z,99.85
2022-11-16T16:10:18.668Z,99.94
2022-11-16T16:12:57.940Z,99.96
2022-11-16T16:15:30.162Z,99.98
2022-11-16T16:17:59.034Z,100.00
2022-11-16T16:20:32.142Z,100.00
2022-11-16T16:23:17.742Z,100.00
2022-11-16T16:25:50.237Z,100.00
2022-11-16T16:28:18.622Z,100.00
2022-11-16T16:30:50.608Z,100.00
2022-11-16T16:33:22.182Z,100.00
2022-11-16T16:35:51.120Z,100.00
2022-11-16T16:38:19.312Z,100.00
2022-11-16T16:40:47.562Z,100.00
2022-11-16T16:43:15.970Z,100.00
2022-11-16T16:45:45.617Z,100.00
2022-11-16T16:48:13.709Z,100.00
2022-11-16T16:50:42.238Z,100.00
2022-11-16T16:53:15.335Z,100.00
2022-11-16T16:55:53.661Z,100.00
2022-11-16T16:58:21.722Z,100.00
2022-11-16T17:00:53.714Z,100.00
2022-11-16T17:03:25.590Z,100.00
2022-11-16T17:06:01.914Z,100.00
2022-11-16T17:08:37.701Z,100.00
2022-11-16T17:11:06.060Z,100.00
2022-11-16T17:13:35.190Z,100.00
2022-11-16T17:16:05.899Z,100.00
2022-11-16T17:18:34.272Z,100.00
2022-11-16T17:21:12.523Z,100.00
2022-11-16T17:23:40.887Z,100.00
2022-11-16T17:26:09.957Z,100.00
2022-11-16T17:28:38.518Z,100.00
2022-11-16T17:31:09.802Z,100.00
2022-11-16T17:33:40.542Z,100.00
2022-11-16T17:36:14.075Z,100.00
2022-11-16T17:38:49.675Z,100.00
2022-11-16T17:41:22.057Z,100.00
2022-11-16T17:43:53.310Z,100.00
2022-11-16T17:46:33.599Z,100.00
2022-11-16T17:49:01.957Z,100.00
2022-11-16T17:51:30.304Z,100.00
2022-11-16T17:53:59.104Z,100.00
2022-11-16T17:56:28.667Z,100.00
2022-11-16T17:58:58.755Z,100.00
2022-11-16T18:01:28.121Z,100.00
2022-11-16T18:03:56.442Z,100.00
2022-11-16T18:06:26.232Z,100.00
2022-11-16T18:08:54.399Z,100.00
2022-11-16T18:11:35.674Z,100.00
2022-11-16T18:14:05.847Z,100.00
2022-11-16T18:16:34.705Z,100.00
2022-11-16T18:19:06.056Z,100.00
2022-11-16T18:22:10.312Z,100.00
2022-11-16T18:24:45.861Z,100.00
2022-11-16T18:27:14.027Z,100.00
2022-11-16T18:29:42.424Z,100.00
2022-11-16T18:32:10.688Z,100.00
2022-11-16T18:34:38.880Z,100.00
2022-11-16T18:37:07.081Z,100.00
2022-11-16T18:39:35.238Z,100.00
2022-11-16T18:42:03.595Z,100.00
2022-11-16T18:44:32.027Z,100.00
2022-11-16T18:47:00.369Z,100.00
2022-11-16T18:49:28.958Z,100.00
2022-11-16T18:51:57.142Z,100.00
2022-11-16T18:54:25.331Z,100.00
2022-11-16T18:56:55.609Z,100.00
2022-11-16T18:59:26.923Z,100.00
2022-11-16T19:02:05.875Z,100.00
2022-11-16T19:04:34.476Z,100.00
2022-11-16T19:07:02.814Z,100.00
2022-11-16T19:09:33.563Z,100.00
2022-11-16T19:12:02.134Z,100.00
2022-11-16T19:14:33.490Z,100.00
2022-11-16T19:17:04.160Z,100.00
2022-11-16T19:19:40.274Z,100.00
2022-11-16T19:22:08.559Z,100.00
2022-11-16T19:24:37.208Z,100.00
2022-11-16T19:27:05.417Z,100.00
2022-11-16T19:29:34.489Z,100.00
2022-11-16T19:32:02.879Z,100.00
2022-11-16T19:34:33.608Z,100.00
2022-11-16T19:37:02.136Z,100.00
2022-11-16T19:39:30.879Z,100.00
2022-11-16T19:41:59.401Z,100.00
2022-11-16T19:44:27.747Z,100.00
2022-11-16T19:46:57.725Z,100.00
2022-11-16T19:49:26.859Z,100.00
2022-11-16T19:52:06.025Z,100.00
2022-11-16T19:54:41.951Z,100.00
2022-11-16T19:57:12.730Z,100.00
2022-11-16T19:59:41.903Z,100.00
2022-11-16T20:02:11.079Z,100.00
2022-11-16T20:04:39.909Z,100.00
2022-11-16T20:07:10.038Z,100.00
2022-11-16T20:09:38.531Z,100.00
2022-11-16T20:12:07.281Z,100.00
2022-11-16T20:14:35.958Z,100.00
2022-11-16T20:17:13.412Z,100.00
2022-11-16T20:19:41.939Z,100.00
2022-11-16T20:22:11.825Z,100.00
2022-11-16T20:24:40.583Z,100.00
2022-11-16T20:27:09.088Z,100.00
2022-11-16T20:29:37.556Z,100.00
2022-11-16T20:32:06.079Z,100.00
2022-11-16T20:34:34.318Z,100.00
2022-11-16T20:37:02.698Z,100.00
2022-11-16T20:39:30.985Z,100.00
2022-11-16T20:41:59.280Z,100.00
2022-11-16T20:44:27.595Z,100.00
2022-11-16T20:46:55.803Z,100.00
2022-11-16T20:49:23.954Z,100.00
2022-11-16T20:51:52.326Z,100.00
2022-11-16T20:54:21.161Z,100.00
2022-11-16T20:56:50.583Z,100.00
2022-11-16T20:59:19.336Z,100.00
2022-11-16T21:01:48.938Z,100.00
2022-11-16T21:04:24.983Z,100.00
2022-11-16T21:06:54.818Z,100.00
2022-11-16T21:09:23.375Z,100.00
2022-11-16T21:12:10.272Z,100.00
2022-11-16T21:14:38.610Z,100.00
2022-11-16T21:17:06.772Z,100.00
2022-11-16T21:19:35.117Z,100.00
2022-11-16T21:22:03.425Z,100.00
2022-11-16T21:24:35.544Z,100.00
2022-11-16T21:27:06.221Z,100.00
2022-11-16T21:29:34.524Z,100.00
2022-11-16T21:32:02.984Z,100.00
2022-11-16T21:34:34.661Z,100.00
2022-11-16T21:37:05.608Z,100.00
2022-11-16T21:39:33.849Z,100.00
2022-11-16T21:42:02.282Z,100.00
2022-11-16T21:44:42.130Z,100.00
2022-11-16T21:47:13.251Z,100.00
2022-11-16T21:50:00.838Z,100.00
2022-11-16T21:52:29.981Z,100.00
2022-11-16T21:55:00.962Z,100.00
2022-11-16T21:57:29.379Z,100.00
2022-11-16T21:59:57.372Z,100.00
2022-11-16T22:02:25.977Z,100.00
2022-11-16T22:05:12.608Z,100.00
2022-11-16T22:07:44.223Z,100.00
2022-11-16T22:10:13.390Z,100.00
2022-11-16T22:12:41.767Z,100.00
2022-11-16T22:15:11.012Z,100.00
2022-11-16T22:17:46.432Z,100.00
2022-11-16T22:20:17.111Z,100.00
2022-11-16T22:22:45.435Z,100.00
2022-11-16T22:25:16.691Z,100.00
2022-11-16T22:28:13.874Z,100.00
2022-11-16T22:30:36.032Z,100.00
2022-11-16T22:33:04.515Z,100.00
2022-11-16T22:35:32.738Z,100.00
2022-11-16T22:38:02.570Z,100.00
2022-11-16T22:40:31.662Z,100.00
2022-11-16T22:43:00.279Z,100.00
2022-11-16T22:45:28.654Z,100.00
2022-11-16T22:48:07.173Z,100.00
2022-11-16T22:50:35.370Z,100.00
2022-11-16T22:53:04.828Z,100.00
2022-11-16T22:55:38.486Z,100.00
2022-11-16T22:58:06.688Z,100.00
2022-11-16T23:00:40.666Z,100.00
2022-11-16T23:03:10.632Z,100.00
2022-11-16T23:05:38.820Z,100.00
2022-11-16T23:08:07.275Z,100.00
2022-11-16T23:10:55.374Z,100.00
2022-11-16T23:13:42.301Z,100.00
2022-11-16T23:16:10.655Z,100.00
2022-11-16T23:18:38.771Z,100.00
2022-11-16T23:21:25.596Z,100.00
2022-11-16T23:24:26.420Z,100.00
2022-11-16T23:27:15.775Z,100.00
2022-11-16T23:29:47.523Z,100.00
2022-11-16T23:32:15.769Z,100.00
2022-11-16T23:34:43.940Z,100.00
2022-11-16T23:37:12.187Z,100.00
2022-11-16T23:39:40.536Z,100.00
2022-11-16T23:42:28.625Z,100.00
2022-11-16T23:44:56.880Z,100.00
2022-11-16T23:47:24.941Z,100.00
2022-11-16T23:49:53.134Z,100.00
2022-11-16T23:52:21.219Z,100.00
2022-11-16T23:54:49.511Z,100.00
2022-11-16T23:57:17.644Z,100.00
2022-11-16T23:59:45.947Z,100.00
